PWSweather.com
Personal Weather Stations
Station Observations
PWSLORIS
The Farm At Fox Bay, Loris, SC 29569

The Farm At Fox BayLoris, SC 29569

Lat: 34.067097, Lon: -78.86907

Elevation: 108

Station Type: Davis Vantage Pro2 with 24 hr. FARS and solar

http://www.lorisweather.com

Latest ConditionsUpdated 7:15:01 PM EST Sunday, Nov 19, 2017
Currently Today's Max Today's Min Today's Average
Temperature 47.5°F8.6°C 66.7°F19.3°C 47.1°F8.4°C 62.7°F17.1°C
Dew Point 39.0°F3.9°C 60.3°F15.7°C 37.8°F3.2°C 52.8°F11.6°C
Winds Calm Calm 10.4 mph N16.7 kmh N - 3.2 mph 5.1 kmh
Wind Gusts -- 17.3 mph27.8 kmh - -
Humidity 72% 88% 38% 72%
Pressure 29.95 in1014.2 mb 29.95 in1014.2 mb 29.65 in1004.1 mb -
Precipitation - 0.01 in0.3 mm - -
Hour Temp Dew Point Humidity Winds Wind Gusts Pressure Precip Precip Rate Daily Precip Total
07:15 PM 47.5°F8.6°C 39.0°F3.9°C 72% Calm Calm -- 29.95 in1014.2 mb - 0.00 in0.0 mm 0.01 in0.3 mm
07:00 PM 47.1°F8.4°C 39.6°F4.2°C 75% Calm Calm -- 29.94 in1013.9 mb - 0.00 in0.0 mm 0.01 in0.3 mm
06:45 PM 47.6°F8.7°C 39.4°F4.1°C 73% Calm Calm -- 29.93 in1013.5 mb - 0.00 in0.0 mm 0.01 in0.3 mm
06:30 PM 48.5°F9.2°C 39.9°F4.4°C 72% Calm Calm -- 29.92 in1013.2 mb - 0.00 in0.0 mm 0.01 in0.3 mm
06:15 PM 49.1°F9.5°C 40.1°F4.5°C 71% Calm Calm -- 29.91 in1012.9 mb - 0.00 in0.0 mm 0.01 in0.3 mm
02:30 PM 63.9°F17.7°C 37.8°F3.2°C 38% 5.8 mph NNW9.3 kmh NNW 12.7 mph20.4 kmh 29.80 in1009.1 mb - 0.00 in0.0 mm 0.01 in0.3 mm
02:15 PM 64.1°F17.8°C 39.9°F4.4°C 41% 3.5 mph NW5.6 kmh NW 11.5 mph18.5 kmh 29.80 in1009.1 mb - 0.00 in0.0 mm 0.01 in0.3 mm
02:00 PM 63.8°F17.7°C 40.3°F4.6°C 42% 1.2 mph NW1.9 kmh NW 3.5 mph5.6 kmh 29.80 in1009.1 mb - 0.00 in0.0 mm 0.01 in0.3 mm
01:45 PM 64.3°F17.9°C 41.9°F5.5°C 44% 5.8 mph NW9.3 kmh NW 10.4 mph16.7 kmh 29.80 in1009.1 mb - 0.00 in0.0 mm 0.01 in0.3 mm
01:30 PM 64.0°F17.8°C 42.2°F5.7°C 45% 3.5 mph NW5.6 kmh NW 4.6 mph7.4 kmh 29.79 in1008.8 mb - 0.00 in0.0 mm 0.01 in0.3 mm
01:15 PM 63.6°F17.6°C 41.9°F5.5°C 45% 4.6 mph NW7.4 kmh NW 8.1 mph13.0 kmh 29.80 in1009.1 mb - 0.00 in0.0 mm 0.01 in0.3 mm
01:00 PM 63.7°F17.6°C 42.5°F5.8°C 46% 9.2 mph N14.8 kmh N 17.3 mph27.8 kmh 29.79 in1008.8 mb - 0.00 in0.0 mm 0.01 in0.3 mm
12:45 PM 63.6°F17.6°C 44.6°F7.0°C 50% 3.5 mph NW5.6 kmh NW 5.8 mph9.3 kmh 29.80 in1009.1 mb - 0.00 in0.0 mm 0.01 in0.3 mm
12:30 PM 63.6°F17.6°C 44.6°F7.0°C 50% 2.3 mph NNW3.7 kmh NNW 3.5 mph5.6 kmh 29.80 in1009.1 mb - 0.00 in0.0 mm 0.01 in0.3 mm
12:15 PM 63.6°F17.6°C 45.7°F7.6°C 52% 2.3 mph NW3.7 kmh NW 8.1 mph13.0 kmh 29.80 in1009.1 mb - 0.00 in0.0 mm 0.01 in0.3 mm
12:00 PM 63.4°F17.4°C 45.5°F7.5°C 52% 3.5 mph NW5.6 kmh NW 13.8 mph22.2 kmh 29.81 in1009.5 mb - 0.00 in0.0 mm 0.01 in0.3 mm
11:45 AM 63.2°F17.3°C 44.3°F6.8°C 50% 5.8 mph N9.3 kmh N 8.1 mph13.0 kmh 29.81 in1009.5 mb - 0.00 in0.0 mm 0.01 in0.3 mm
11:30 AM 62.7°F17.1°C 45.8°F7.7°C 54% 5.8 mph N9.3 kmh N 11.5 mph18.5 kmh 29.82 in1009.8 mb - 0.00 in0.0 mm 0.01 in0.3 mm
11:15 AM 62.3°F16.8°C 45.4°F7.4°C 54% 5.8 mph NNW9.3 kmh NNW 9.2 mph14.8 kmh 29.82 in1009.8 mb - 0.00 in0.0 mm 0.01 in0.3 mm
11:00 AM 62.3°F16.8°C 46.9°F8.3°C 57% 3.5 mph NNW5.6 kmh NNW 4.6 mph7.4 kmh 29.82 in1009.8 mb - 0.00 in0.0 mm 0.01 in0.3 mm
10:45 AM 61.5°F16.4°C 46.1°F7.8°C 57% 3.5 mph N5.6 kmh N 11.5 mph18.5 kmh 29.82 in1009.8 mb - 0.00 in0.0 mm 0.01 in0.3 mm
10:30 AM 62.8°F17.1°C 46.8°F8.2°C 56% 10.4 mph N16.7 kmh N 16.1 mph25.9 kmh 29.82 in1009.8 mb - 0.00 in0.0 mm 0.01 in0.3 mm
10:15 AM 62.7°F17.1°C 49.5°F9.7°C 62% 9.2 mph NNW14.8 kmh NNW 12.7 mph20.4 kmh 29.81 in1009.5 mb - 0.00 in0.0 mm 0.01 in0.3 mm
10:00 AM 62.6°F17.0°C 50.2°F10.1°C 64% 4.6 mph NW7.4 kmh NW 8.1 mph13.0 kmh 29.81 in1009.5 mb - 0.00 in0.0 mm 0.01 in0.3 mm
09:45 AM 60.6°F15.9°C 49.2°F9.6°C 66% 6.9 mph NNW11.1 kmh NNW 11.5 mph18.5 kmh 29.81 in1009.5 mb - 0.00 in0.0 mm 0.01 in0.3 mm
09:30 AM 61.3°F16.3°C 51.0°F10.6°C 69% 9.2 mph NW14.8 kmh NW 17.3 mph27.8 kmh 29.80 in1009.1 mb - 0.00 in0.0 mm 0.01 in0.3 mm
09:15 AM 62.2°F16.8°C 53.1°F11.7°C 72% 4.6 mph NNW7.4 kmh NNW 12.7 mph20.4 kmh 29.79 in1008.8 mb - 0.00 in0.0 mm 0.01 in0.3 mm
09:00 AM 62.7°F17.1°C 54.3°F12.4°C 74% 4.6 mph NW7.4 kmh NW 9.2 mph14.8 kmh 29.78 in1008.5 mb - 0.00 in0.0 mm 0.01 in0.3 mm
08:45 AM 63.6°F17.6°C 58.0°F14.4°C 82% 4.6 mph NW7.4 kmh NW 10.4 mph16.7 kmh 29.77 in1008.1 mb - 0.00 in0.0 mm 0.01 in0.3 mm
08:30 AM 63.9°F17.7°C 59.3°F15.2°C 85% 2.3 mph NW3.7 kmh NW 3.5 mph5.6 kmh 29.75 in1007.5 mb - 0.00 in0.0 mm 0.01 in0.3 mm
08:15 AM 64.2°F17.9°C 59.3°F15.2°C 84% 2.3 mph WSW3.7 kmh WSW 3.5 mph5.6 kmh 29.74 in1007.1 mb - 0.00 in0.0 mm 0.01 in0.3 mm
08:00 AM 63.9°F17.7°C 59.6°F15.3°C 86% Calm Calm -- 29.73 in1006.8 mb - 0.00 in0.0 mm 0.01 in0.3 mm
07:45 AM 63.2°F17.3°C 59.3°F15.2°C 87% 1.2 mph W1.9 kmh W -- 29.72 in1006.4 mb - 0.00 in0.0 mm 0.01 in0.3 mm
07:30 AM 62.9°F17.2°C 59.3°F15.2°C 88% Calm Calm 1.2 mph1.9 kmh 29.71 in1006.1 mb - 0.00 in0.0 mm 0.01 in0.3 mm
07:15 AM 63.2°F17.3°C 59.2°F15.1°C 87% Calm Calm 1.2 mph1.9 kmh 29.70 in1005.8 mb - 0.00 in0.0 mm 0.01 in0.3 mm
07:00 AM 63.4°F17.4°C 59.5°F15.3°C 87% 1.2 mph W1.9 kmh W -- 29.70 in1005.8 mb - 0.00 in0.0 mm 0.01 in0.3 mm
06:45 AM 63.3°F17.4°C 59.4°F15.2°C 87% Calm Calm -- 29.70 in1005.8 mb - 0.00 in0.0 mm 0.01 in0.3 mm
06:30 AM 63.4°F17.4°C 59.8°F15.4°C 88% 1.2 mph WNW1.9 kmh WNW 3.5 mph5.6 kmh 29.69 in1005.4 mb - 0.00 in0.0 mm 0.01 in0.3 mm
06:15 AM 63.5°F17.5°C 59.9°F15.5°C 88% Calm Calm 4.6 mph7.4 kmh 29.69 in1005.4 mb - 0.00 in0.0 mm 0.01 in0.3 mm
06:00 AM 63.6°F17.6°C 60.0°F15.6°C 88% 1.2 mph WSW1.9 kmh WSW 3.5 mph5.6 kmh 29.68 in1005.1 mb - 0.00 in0.0 mm 0.01 in0.3 mm
05:45 AM 63.8°F17.7°C 59.9°F15.5°C 87% 1.2 mph SW1.9 kmh SW 3.5 mph5.6 kmh 29.68 in1005.1 mb - 0.00 in0.0 mm 0.01 in0.3 mm
05:30 AM 64.8°F18.2°C 60.2°F15.7°C 85% Calm Calm 3.5 mph5.6 kmh 29.67 in1004.7 mb - 0.01 in0.3 mm 0.01 in0.3 mm
05:15 AM 66.3°F19.1°C 60.3°F15.7°C 81% 1.2 mph SW1.9 kmh SW 4.6 mph7.4 kmh 29.68 in1005.1 mb - 0.00 in0.0 mm 0.00 in0.0 mm
05:00 AM 66.4°F19.1°C 59.7°F15.4°C 79% 3.5 mph S5.6 kmh S 9.2 mph14.8 kmh 29.66 in1004.4 mb - 0.00 in0.0 mm 0.00 in0.0 mm
04:45 AM 66.7°F19.3°C 60.0°F15.6°C 79% 2.3 mph SE3.7 kmh SE 4.6 mph7.4 kmh 29.66 in1004.4 mb - 0.00 in0.0 mm 0.00 in0.0 mm
04:30 AM 66.7°F19.3°C 59.6°F15.3°C 78% 6.9 mph SW11.1 kmh SW 10.4 mph16.7 kmh 29.66 in1004.4 mb - 0.00 in0.0 mm 0.00 in0.0 mm
04:15 AM 66.5°F19.2°C 59.4°F15.2°C 78% Calm Calm 1.2 mph1.9 kmh 29.66 in1004.4 mb - 0.00 in0.0 mm 0.00 in0.0 mm
04:00 AM 66.3°F19.1°C 58.9°F14.9°C 77% 2.3 mph S3.7 kmh S 5.8 mph9.3 kmh 29.66 in1004.4 mb - 0.00 in0.0 mm 0.00 in0.0 mm
03:45 AM 66.1°F18.9°C 59.0°F15.0°C 78% Calm Calm 6.9 mph11.1 kmh 29.66 in1004.4 mb - 0.00 in0.0 mm 0.00 in0.0 mm
03:30 AM 65.7°F18.7°C 58.7°F14.8°C 78% 2.3 mph S3.7 kmh S 5.8 mph9.3 kmh 29.65 in1004.1 mb - 0.00 in0.0 mm 0.00 in0.0 mm
03:15 AM 65.3°F18.5°C 58.6°F14.8°C 79% 2.3 mph S3.7 kmh S 6.9 mph11.1 kmh 29.66 in1004.4 mb - 0.00 in0.0 mm 0.00 in0.0 mm
03:00 AM 65.1°F18.4°C 58.8°F14.9°C 80% 3.5 mph S5.6 kmh S 8.1 mph13.0 kmh 29.66 in1004.4 mb - 0.00 in0.0 mm 0.00 in0.0 mm
02:45 AM 65.2°F18.4°C 58.9°F14.9°C 80% 2.3 mph S3.7 kmh S 8.1 mph13.0 kmh 29.66 in1004.4 mb - 0.00 in0.0 mm 0.00 in0.0 mm
02:30 AM 65.3°F18.5°C 59.3°F15.2°C 81% 3.5 mph SSW5.6 kmh SSW 8.1 mph13.0 kmh 29.67 in1004.7 mb - 0.00 in0.0 mm 0.00 in0.0 mm
02:15 AM 65.2°F18.4°C 59.2°F15.1°C 81% 4.6 mph SW7.4 kmh SW 6.9 mph11.1 kmh 29.67 in1004.7 mb - 0.00 in0.0 mm 0.00 in0.0 mm
02:00 AM 65.1°F18.4°C 59.1°F15.1°C 81% 4.6 mph S7.4 kmh S 11.5 mph18.5 kmh 29.68 in1005.1 mb - 0.00 in0.0 mm 0.00 in0.0 mm
01:45 AM 64.7°F18.2°C 58.8°F14.9°C 81% 3.5 mph S5.6 kmh S 6.9 mph11.1 kmh 29.68 in1005.1 mb - 0.00 in0.0 mm 0.00 in0.0 mm
01:30 AM 64.8°F18.2°C 58.8°F14.9°C 81% 2.3 mph S3.7 kmh S 6.9 mph11.1 kmh 29.69 in1005.4 mb - 0.00 in0.0 mm 0.00 in0.0 mm
01:15 AM 64.6°F18.1°C 58.6°F14.8°C 81% 5.8 mph SSW9.3 kmh SSW 11.5 mph18.5 kmh 29.69 in1005.4 mb - 0.00 in0.0 mm 0.00 in0.0 mm
01:00 AM 64.1°F17.8°C 58.5°F14.7°C 82% 3.5 mph S5.6 kmh S 6.9 mph11.1 kmh 29.70 in1005.8 mb - 0.00 in0.0 mm 0.00 in0.0 mm
12:45 AM 64.0°F17.8°C 58.4°F14.7°C 82% 4.6 mph S7.4 kmh S 6.9 mph11.1 kmh 29.70 in1005.8 mb - 0.00 in0.0 mm 0.00 in0.0 mm
12:30 AM 63.8°F17.7°C 58.5°F14.7°C 83% 5.8 mph S9.3 kmh S 10.4 mph16.7 kmh 29.71 in1006.1 mb - 0.00 in0.0 mm 0.00 in0.0 mm
12:15 AM 63.6°F17.6°C 58.3°F14.6°C 83% 3.5 mph S5.6 kmh S 8.1 mph13.0 kmh 29.73 in1006.8 mb - 0.00 in0.0 mm 0.00 in0.0 mm
12:00 AM 63.7°F17.6°C 58.1°F14.5°C 82% 4.6 mph S7.4 kmh S 5.8 mph9.3 kmh 29.72 in1006.4 mb - 0.00 in0.0 mm 0.00 in0.0 mm